createdAt,value
2023-01-09T00:02:18.182Z,97.57
2023-01-09T00:04:47.924Z,97.39
2023-01-09T00:07:19.325Z,97.60
2023-01-09T00:09:49.418Z,97.64
2023-01-09T00:12:20.717Z,97.50
2023-01-09T00:14:50.771Z,97.74
2023-01-09T00:17:20.620Z,97.96
2023-01-09T00:19:50.384Z,97.84
2023-01-09T00:22:22.196Z,97.73
2023-01-09T00:24:52.057Z,98.33
2023-01-09T00:27:22.344Z,98.21
2023-01-09T00:29:52.164Z,97.54
2023-01-09T00:32:21.999Z,97.84
2023-01-09T00:34:51.843Z,97.59
2023-01-09T00:37:23.519Z,98.06
2023-01-09T00:39:53.364Z,97.96
2023-01-09T00:42:27.044Z,97.63
2023-01-09T00:45:00.979Z,98.24
2023-01-09T00:50:45.863Z,97.93
2023-01-09T00:53:19.282Z,97.70
2023-01-09T00:55:49.375Z,98.04
2023-01-09T00:58:20.102Z,98.17
2023-01-09T01:00:50.098Z,97.61
2023-01-09T01:03:20.171Z,97.23
2023-01-09T01:06:20.143Z,97.61
2023-01-09T01:08:49.955Z,97.74
2023-01-09T01:11:19.858Z,97.94
2023-01-09T01:13:49.883Z,98.02
2023-01-09T01:16:19.948Z,97.76
2023-01-09T01:18:49.736Z,97.11
2023-01-09T01:21:21.480Z,96.92
2023-01-09T01:23:51.270Z,96.76
2023-01-09T01:26:21.132Z,96.88
2023-01-09T01:28:50.963Z,97.29
2023-01-09T01:31:21.942Z,97.83
2023-01-09T01:33:51.823Z,97.29
2023-01-09T01:36:23.096Z,97.13
2023-01-09T01:38:52.976Z,97.36
2023-01-09T01:41:29.845Z,97.04
2023-01-09T01:44:02.403Z,96.74
2023-01-09T01:46:33.869Z,97.18
2023-01-09T01:49:09.863Z,96.79
2023-01-09T01:51:46.892Z,96.87
2023-01-09T01:54:22.084Z,97.15
2023-01-09T01:56:57.341Z,97.10
2023-01-09T01:59:33.936Z,97.37
2023-01-09T02:02:05.298Z,97.50
2023-01-09T02:04:39.595Z,98.06
2023-01-09T02:07:12.457Z,98.02
2023-01-09T02:09:44.813Z,97.77
2023-01-09T02:12:24.003Z,97.67
2023-01-09T02:14:58.711Z,97.47
2023-01-09T02:18:07.483Z,97.40
2023-01-09T02:20:47.021Z,97.61
2023-01-09T02:24:04.751Z,97.68
2023-01-09T02:27:20.636Z,97.85
2023-01-09T02:30:26.888Z,97.84
2023-01-09T02:33:09.604Z,97.82
2023-01-09T02:36:13.879Z,97.62
2023-01-09T02:39:00.330Z,97.19
2023-01-09T02:41:39.945Z,97.60
2023-01-09T02:44:22.028Z,97.57
2023-01-09T02:47:05.126Z,97.64
2023-01-09T02:49:35.513Z,97.54
2023-01-09T02:52:22.036Z,97.47
2023-01-09T02:55:03.880Z,97.64
2023-01-09T02:57:59.237Z,97.45
2023-01-09T03:00:38.063Z,97.44
2023-01-09T03:03:18.685Z,97.43
2023-01-09T03:05:56.996Z,97.73
2023-01-09T03:08:33.091Z,97.77
2023-01-09T03:11:07.466Z,97.85
2023-01-09T03:13:45.580Z,97.19
2023-01-09T03:16:22.592Z,97.96
2023-01-09T03:18:56.556Z,97.35
2023-01-09T03:21:27.242Z,97.45
2023-01-09T03:24:00.623Z,98.16
2023-01-09T03:26:31.474Z,97.50
2023-01-09T03:29:02.225Z,97.47
2023-01-09T03:31:32.107Z,97.96
2023-01-09T03:34:03.595Z,97.66
2023-01-09T03:36:33.684Z,97.26
2023-01-09T03:39:03.677Z,97.31
2023-01-09T03:41:33.602Z,97.21
2023-01-09T03:44:03.416Z,97.37
2023-01-09T03:46:33.404Z,97.18
2023-01-09T03:51:45.037Z,97.34
2023-01-09T03:54:14.799Z,98.01
2023-01-09T03:56:44.617Z,97.82
2023-01-09T03:59:14.417Z,97.66
2023-01-09T04:01:44.343Z,97.84
2023-01-09T04:04:14.455Z,98.04
2023-01-09T04:06:45.959Z,97.65
2023-01-09T04:09:15.784Z,97.89
2023-01-09T04:11:45.766Z,97.83
2023-01-09T04:14:15.929Z,97.87
2023-01-09T04:16:45.899Z,98.34
2023-01-09T04:19:15.760Z,97.94
2023-01-09T04:21:47.124Z,98.37
2023-01-09T04:24:16.884Z,98.06
2023-01-09T04:26:46.764Z,98.33
2023-01-09T04:29:16.538Z,98.23
2023-01-09T04:31:46.525Z,99.13
2023-01-09T04:34:16.497Z,99.03
2023-01-09T04:36:47.738Z,98.85
2023-01-09T04:39:17.524Z,99.76
2023-01-09T04:41:53.357Z,99.25
2023-01-09T04:44:26.887Z,99.61
2023-01-09T04:46:59.200Z,100.00
2023-01-09T04:49:29.465Z,100.00
2023-01-09T04:52:00.960Z,100.00
2023-01-09T04:54:30.820Z,100.00
2023-01-09T04:57:00.638Z,100.00
2023-01-09T04:59:30.568Z,100.00
2023-01-09T05:02:00.434Z,100.00
2023-01-09T05:04:30.607Z,100.00
2023-01-09T05:07:02.012Z,100.00
2023-01-09T05:09:31.979Z,100.00
2023-01-09T05:12:02.018Z,100.00
2023-01-09T05:14:31.856Z,100.00
2023-01-09T05:17:01.818Z,100.00
2023-01-09T05:19:31.784Z,100.00
2023-01-09T05:22:03.178Z,100.00
2023-01-09T05:24:33.079Z,100.00
2023-01-09T05:27:03.783Z,100.00
2023-01-09T05:29:33.506Z,100.00
2023-01-09T05:32:03.443Z,100.00
2023-01-09T05:34:33.477Z,100.00
2023-01-09T05:37:04.910Z,100.00
2023-01-09T05:39:34.743Z,100.00
2023-01-09T05:42:04.727Z,100.00
2023-01-09T05:44:34.611Z,100.00
2023-01-09T05:47:04.406Z,100.00
2023-01-09T05:49:34.319Z,100.00
2023-01-09T05:52:06.625Z,100.00
2023-01-09T05:54:36.467Z,100.00
2023-01-09T05:57:06.524Z,100.00
2023-01-09T05:59:36.636Z,100.00
2023-01-09T06:02:06.563Z,100.00
2023-01-09T06:04:36.547Z,100.00
2023-01-09T06:07:07.958Z,100.00
2023-01-09T06:09:37.657Z,100.00
2023-01-09T06:12:07.957Z,100.00
2023-01-09T06:14:37.851Z,100.00
2023-01-09T06:17:07.970Z,100.00
2023-01-09T06:19:38.087Z,100.00
2023-01-09T06:22:09.305Z,100.00
2023-01-09T06:24:39.168Z,100.00
2023-01-09T06:27:09.044Z,100.00
2023-01-09T06:29:38.880Z,100.00
2023-01-09T06:32:09.423Z,100.00
2023-01-09T06:34:39.350Z,100.00
2023-01-09T06:37:13.618Z,100.00
2023-01-09T06:39:43.457Z,100.00
2023-01-09T06:42:13.305Z,100.00
2023-01-09T06:44:43.165Z,100.00
2023-01-09T06:47:12.974Z,100.00
2023-01-09T06:51:45.017Z,100.00
2023-01-09T06:54:14.837Z,100.00
2023-01-09T06:56:44.766Z,100.00
2023-01-09T06:59:15.240Z,100.00
2023-01-09T07:01:45.037Z,100.00
2023-01-09T07:04:14.978Z,100.00
2023-01-09T07:06:48.966Z,100.00
2023-01-09T07:09:18.878Z,100.00
2023-01-09T07:11:48.831Z,100.00
2023-01-09T07:14:18.720Z,100.00
2023-01-09T07:16:48.482Z,100.00
2023-01-09T07:19:18.318Z,100.00
2023-01-09T07:21:49.725Z,100.00
2023-01-09T07:24:19.630Z,100.00
2023-01-09T07:26:49.429Z,100.00
2023-01-09T07:29:19.248Z,100.00
2023-01-09T07:31:48.990Z,100.00
2023-01-09T07:34:18.917Z,100.00
2023-01-09T07:36:51.498Z,100.00
2023-01-09T07:39:21.444Z,100.00
2023-01-09T07:41:51.244Z,100.00
2023-01-09T07:44:21.532Z,100.00
2023-01-09T07:46:51.478Z,100.00
2023-01-09T07:49:21.365Z,100.00
2023-01-09T07:51:52.618Z,100.00
2023-01-09T07:54:22.484Z,100.00
2023-01-09T07:56:52.439Z,100.00
2023-01-09T07:59:22.405Z,100.00
2023-01-09T08:01:52.305Z,100.00
2023-01-09T08:04:22.204Z,100.00
2023-01-09T08:06:53.558Z,100.00
2023-01-09T08:09:23.555Z,100.00
2023-01-09T08:11:53.391Z,100.00
2023-01-09T08:14:23.239Z,100.00
2023-01-09T08:16:53.038Z,100.00
2023-01-09T08:19:22.959Z,100.00
2023-01-09T08:21:54.231Z,100.00
2023-01-09T08:24:24.045Z,100.00
2023-01-09T08:26:53.965Z,100.00
2023-01-09T08:29:23.715Z,100.00
2023-01-09T08:31:53.558Z,100.00
2023-01-09T08:34:23.559Z,100.00
2023-01-09T08:36:54.923Z,100.00
2023-01-09T08:39:24.785Z,100.00
2023-01-09T08:42:11.605Z,100.00
2023-01-09T08:44:58.771Z,100.00
2023-01-09T08:47:33.658Z,100.00
2023-01-09T08:50:04.795Z,100.00
2023-01-09T08:52:36.075Z,100.00
2023-01-09T08:55:06.618Z,100.00
2023-01-09T08:57:36.401Z,100.00
2023-01-09T09:00:07.518Z,100.00
2023-01-09T09:02:37.273Z,100.00
2023-01-09T09:05:08.491Z,100.00
2023-01-09T09:07:39.753Z,100.00
2023-01-09T09:10:10.797Z,100.00
2023-01-09T09:12:40.792Z,100.00
2023-01-09T09:15:16.834Z,100.00
2023-01-09T09:17:46.705Z,100.00
2023-01-09T09:20:16.695Z,100.00
2023-01-09T09:22:49.067Z,100.00
2023-01-09T09:25:19.827Z,100.00
2023-01-09T09:27:49.913Z,100.00
2023-01-09T09:30:22.083Z,100.00
2023-01-09T09:32:52.205Z,100.00
2023-01-09T09:35:22.818Z,100.00
2023-01-09T09:37:59.967Z,100.00
2023-01-09T09:40:57.366Z,100.00
2023-01-09T09:44:27.720Z,100.00
2023-01-09T09:47:12.013Z,100.00
2023-01-09T09:52:01.137Z,100.00
2023-01-09T09:54:38.384Z,100.00
2023-01-09T09:57:14.881Z,100.00
2023-01-09T09:59:46.068Z,100.00
2023-01-09T10:02:29.683Z,100.00
2023-01-09T10:05:07.306Z,100.00
2023-01-09T10:07:49.139Z,100.00
2023-01-09T10:10:28.947Z,100.00
2023-01-09T10:13:21.164Z,100.00
2023-01-09T10:16:01.948Z,100.00
2023-01-09T10:18:49.605Z,100.00
2023-01-09T10:21:27.075Z,100.00
2023-01-09T10:24:26.561Z,100.00
2023-01-09T10:26:57.498Z,100.00
2023-01-09T10:29:43.229Z,100.00
2023-01-09T10:32:37.685Z,100.00
2023-01-09T10:35:47.914Z,100.00
2023-01-09T10:38:24.724Z,100.00
2023-01-09T10:41:03.567Z,100.00
2023-01-09T10:43:40.100Z,100.00
2023-01-09T10:46:17.364Z,100.00
2023-01-09T10:48:52.820Z,100.00
2023-01-09T10:51:26.163Z,100.00
2023-01-09T10:53:58.008Z,100.00
2023-01-09T10:56:32.280Z,100.00
2023-01-09T10:59:02.216Z,100.00
2023-01-09T11:01:37.942Z,100.00
2023-01-09T11:04:25.698Z,100.00
2023-01-09T11:07:02.104Z,100.00
2023-01-09T11:10:01.772Z,100.00
2023-01-09T11:12:36.367Z,100.00
2023-01-09T11:15:30.832Z,100.00
2023-01-09T11:18:24.827Z,100.00
2023-01-09T11:20:55.120Z,100.00
2023-01-09T11:23:32.118Z,100.00
2023-01-09T11:26:04.087Z,100.00
2023-01-09T11:28:35.497Z,100.00
2023-01-09T11:31:06.072Z,100.00
2023-01-09T11:33:43.180Z,100.00
2023-01-09T11:36:19.476Z,100.00
2023-01-09T11:38:55.428Z,100.00
2023-01-09T11:41:27.796Z,100.00
2023-01-09T11:44:01.796Z,100.00
2023-01-09T11:46:38.917Z,100.00
2023-01-09T11:49:25.083Z,100.00
2023-01-09T11:52:21.053Z,100.00
2023-01-09T11:54:56.738Z,100.00
2023-01-09T11:57:28.395Z,100.00
2023-01-09T12:00:05.319Z,100.00
2023-01-09T12:03:04.392Z,100.00
2023-01-09T12:05:44.804Z,100.00
2023-01-09T12:08:33.686Z,100.00
2023-01-09T12:11:24.086Z,100.00
2023-01-09T12:14:18.370Z,100.00
2023-01-09T12:17:16.922Z,100.00
2023-01-09T12:20:07.423Z,100.00
2023-01-09T12:22:45.259Z,100.00
2023-01-09T12:25:33.086Z,100.00
2023-01-09T12:28:24.181Z,100.00
2023-01-09T12:31:09.723Z,100.00
2023-01-09T12:33:52.008Z,100.00
2023-01-09T12:36:34.028Z,100.00
2023-01-09T12:39:17.498Z,100.00
2023-01-09T12:42:17.665Z,100.00
2023-01-09T12:44:54.901Z,100.00
2023-01-09T12:47:47.498Z,100.00
2023-01-09T12:51:50.575Z,100.00
2023-01-09T12:54:30.807Z,100.00
2023-01-09T12:57:08.537Z,100.00
2023-01-09T12:59:44.911Z,100.00
2023-01-09T13:02:24.946Z,100.00
2023-01-09T13:05:00.917Z,100.00
2023-01-09T13:07:37.885Z,100.00
2023-01-09T13:10:19.949Z,100.00
2023-01-09T13:12:52.218Z,100.00
2023-01-09T13:15:32.671Z,100.00
2023-01-09T13:18:09.541Z,100.00
2023-01-09T13:20:45.899Z,100.00
2023-01-09T13:23:27.789Z,100.00
2023-01-09T13:26:00.278Z,100.00
2023-01-09T13:28:36.246Z,100.00
2023-01-09T13:31:48.783Z,100.00
2023-01-09T13:34:22.962Z,100.00
2023-01-09T13:36:55.593Z,100.00
2023-01-09T13:39:29.872Z,100.00
2023-01-09T13:42:21.273Z,100.00
2023-01-09T13:44:55.428Z,100.00
2023-01-09T13:47:29.073Z,100.00
2023-01-09T13:50:25.412Z,100.00
2023-01-09T13:52:55.497Z,100.00
2023-01-09T13:55:37.510Z,100.00
2023-01-09T13:58:25.774Z,100.00
2023-01-09T14:01:05.664Z,100.00
2023-01-09T14:03:39.241Z,100.00
2023-01-09T14:06:28.464Z,100.00
2023-01-09T14:09:20.396Z,100.00
2023-01-09T14:12:05.429Z,100.00
2023-01-09T14:14:41.605Z,100.00
2023-01-09T14:17:25.007Z,100.00
2023-01-09T14:19:59.106Z,100.00
2023-01-09T14:22:42.324Z,100.00
2023-01-09T14:25:27.462Z,100.00
2023-01-09T14:28:22.386Z,100.00
2023-01-09T14:31:13.536Z,100.00
2023-01-09T14:33:43.427Z,100.00
2023-01-09T14:36:19.739Z,100.00
2023-01-09T14:38:53.002Z,100.00
2023-01-09T14:41:46.179Z,100.00
2023-01-09T14:44:29.871Z,100.00
2023-01-09T14:47:07.118Z,100.00
2023-01-09T14:49:42.957Z,100.00
2023-01-09T14:52:20.997Z,100.00
2023-01-09T14:54:53.366Z,100.00
2023-01-09T14:57:31.003Z,100.00
2023-01-09T15:00:06.447Z,100.00
2023-01-09T15:02:39.604Z,100.00
2023-01-09T15:05:12.818Z,100.00
2023-01-09T15:07:47.684Z,100.00
2023-01-09T15:10:22.196Z,100.00
2023-01-09T15:12:56.307Z,100.00
2023-01-09T15:15:29.544Z,100.00
2023-01-09T15:18:03.164Z,100.00
2023-01-09T15:20:35.384Z,100.00
2023-01-09T15:23:06.157Z,100.00
2023-01-09T15:25:39.902Z,100.00
2023-01-09T15:28:28.909Z,100.00
2023-01-09T15:31:06.756Z,100.00
2023-01-09T15:33:39.768Z,100.00
2023-01-09T15:36:17.557Z,100.00
2023-01-09T15:38:48.844Z,100.00
2023-01-09T15:41:41.365Z,100.00
2023-01-09T15:44:19.559Z,100.00
2023-01-09T15:46:52.498Z,100.00
2023-01-09T15:51:46.502Z,100.00
2023-01-09T15:54:17.345Z,100.00
2023-01-09T15:56:47.844Z,100.00
2023-01-09T15:59:29.847Z,100.00
2023-01-09T16:02:16.052Z,100.00
2023-01-09T16:04:46.265Z,100.00
2023-01-09T16:07:21.672Z,100.00
2023-01-09T16:09:53.849Z,100.00
2023-01-09T16:12:26.786Z,100.00
2023-01-09T16:14:59.582Z,100.00
2023-01-09T16:17:31.684Z,100.00
2023-01-09T16:20:15.458Z,100.00
2023-01-09T16:22:57.597Z,100.00
2023-01-09T16:25:34.502Z,100.00
2023-01-09T16:28:21.420Z,100.00
2023-01-09T16:30:57.780Z,100.00
2023-01-09T16:33:30.158Z,100.00
2023-01-09T16:36:01.174Z,100.00
2023-01-09T16:38:32.625Z,100.00
2023-01-09T16:41:22.787Z,100.00
2023-01-09T16:43:53.559Z,100.00
2023-01-09T16:46:24.500Z,100.00
2023-01-09T16:48:55.177Z,100.00
2023-01-09T16:51:26.058Z,100.00
2023-01-09T16:53:57.563Z,100.00
2023-01-09T16:56:31.343Z,100.00
2023-01-09T16:59:04.040Z,100.00
2023-01-09T17:01:34.193Z,100.00
2023-01-09T17:04:04.077Z,100.00
2023-01-09T17:06:35.290Z,100.00
2023-01-09T17:09:06.763Z,100.00
2023-01-09T17:11:36.689Z,100.00
2023-01-09T17:14:07.835Z,100.00
2023-01-09T17:16:38.444Z,100.00
2023-01-09T17:19:08.445Z,100.00
2023-01-09T17:21:38.596Z,100.00
2023-01-09T17:24:28.038Z,100.00
2023-01-09T17:27:15.089Z,100.00
2023-01-09T17:29:45.044Z,100.00
2023-01-09T17:32:17.991Z,100.00
2023-01-09T17:34:47.947Z,100.00
2023-01-09T17:37:19.687Z,100.00
2023-01-09T17:39:51.057Z,100.00
2023-01-09T17:42:21.030Z,100.00
2023-01-09T17:44:50.945Z,100.00
2023-01-09T17:47:20.796Z,100.00
2023-01-09T17:49:51.020Z,100.00
2023-01-09T17:52:22.277Z,100.00
2023-01-09T17:54:53.624Z,100.00
2023-01-09T17:57:23.576Z,100.00
2023-01-09T17:59:53.339Z,100.00
2023-01-09T18:02:23.434Z,100.00
2023-01-09T18:04:53.316Z,100.00
2023-01-09T18:07:23.338Z,100.00
2023-01-09T18:09:54.677Z,100.00
2023-01-09T18:12:24.548Z,100.00
2023-01-09T18:14:54.380Z,100.00
2023-01-09T18:17:24.392Z,100.00
2023-01-09T18:19:54.177Z,100.00
2023-01-09T18:22:24.024Z,100.00
2023-01-09T18:24:55.363Z,100.00
2023-01-09T18:27:25.411Z,100.00
2023-01-09T18:29:56.578Z,100.00
2023-01-09T18:32:26.818Z,100.00
2023-01-09T18:34:56.711Z,100.00
2023-01-09T18:37:26.516Z,100.00
2023-01-09T18:39:58.061Z,100.00
2023-01-09T18:42:27.919Z,100.00
2023-01-09T18:44:57.736Z,100.00
2023-01-09T18:47:27.683Z,100.00
2023-01-09T18:51:45.044Z,100.00
2023-01-09T18:54:14.977Z,100.00
2023-01-09T18:56:44.917Z,100.00
2023-01-09T18:59:15.050Z,100.00
2023-01-09T19:01:48.047Z,100.00
2023-01-09T19:04:18.378Z,100.00
2023-01-09T19:06:50.797Z,100.00
2023-01-09T19:09:20.714Z,100.00
2023-01-09T19:11:50.456Z,100.00
2023-01-09T19:14:20.379Z,100.00
2023-01-09T19:16:50.193Z,100.00
2023-01-09T19:19:20.302Z,100.00
2023-01-09T19:21:51.597Z,100.00
2023-01-09T19:24:21.504Z,100.00
2023-01-09T19:26:51.379Z,100.00
2023-01-09T19:29:21.184Z,100.00
2023-01-09T19:31:52.489Z,100.00
2023-01-09T19:34:23.044Z,100.00
2023-01-09T19:36:54.382Z,100.00
2023-01-09T19:39:24.613Z,100.00
2023-01-09T19:41:54.704Z,100.00
2023-01-09T19:44:24.864Z,100.00
2023-01-09T19:46:55.103Z,100.00
2023-01-09T19:49:24.982Z,100.00
2023-01-09T19:51:56.628Z,100.00
2023-01-09T19:54:26.624Z,100.00
2023-01-09T19:56:56.567Z,100.00
2023-01-09T19:59:26.459Z,100.00
2023-01-09T20:01:56.367Z,100.00
2023-01-09T20:04:27.944Z,100.00
2023-01-09T20:06:59.788Z,100.00
2023-01-09T20:09:30.177Z,100.00
2023-01-09T20:12:00.374Z,100.00
2023-01-09T20:14:30.446Z,100.00
2023-01-09T20:17:04.609Z,100.00
2023-01-09T20:19:34.482Z,100.00
2023-01-09T20:22:05.980Z,100.00
2023-01-09T20:24:37.379Z,100.00
2023-01-09T20:27:07.534Z,100.00
2023-01-09T20:29:37.357Z,100.00
2023-01-09T20:32:08.064Z,100.00
2023-01-09T20:34:38.027Z,100.00
2023-01-09T20:37:09.450Z,100.00
2023-01-09T20:39:39.891Z,100.00
2023-01-09T20:42:09.677Z,100.00
2023-01-09T20:44:39.605Z,100.00
2023-01-09T20:47:09.518Z,100.00
2023-01-09T20:49:39.318Z,100.00
2023-01-09T20:52:10.844Z,100.00
2023-01-09T20:54:42.118Z,100.00
2023-01-09T20:57:11.986Z,100.00
2023-01-09T20:59:41.919Z,100.00
2023-01-09T21:02:16.513Z,100.00
2023-01-09T21:04:46.467Z,100.00
2023-01-09T21:07:18.045Z,100.00
2023-01-09T21:09:48.096Z,100.00
2023-01-09T21:12:27.997Z,100.00
2023-01-09T21:15:02.313Z,100.00
2023-01-09T21:17:35.244Z,100.00
2023-01-09T21:20:05.191Z,100.00
2023-01-09T21:22:37.383Z,100.00
2023-01-09T21:25:09.343Z,100.00
2023-01-09T21:27:43.186Z,100.00
2023-01-09T21:30:14.544Z,100.00
2023-01-09T21:32:44.505Z,100.00
2023-01-09T21:35:14.468Z,100.00
2023-01-09T21:37:45.873Z,100.00
2023-01-09T21:40:17.862Z,100.00
2023-01-09T21:43:05.402Z,100.00
2023-01-09T21:45:52.182Z,100.00
2023-01-09T21:51:45.938Z,100.00
2023-01-09T21:54:15.816Z,100.00
2023-01-09T21:56:46.183Z,100.00
2023-01-09T21:59:17.085Z,100.00
2023-01-09T22:01:47.976Z,100.00
2023-01-09T22:04:20.088Z,100.00
2023-01-09T22:06:51.591Z,100.00
2023-01-09T22:09:21.457Z,100.00
2023-01-09T22:11:51.325Z,100.00
2023-01-09T22:14:22.197Z,100.00
2023-01-09T22:16:52.175Z,100.00
2023-01-09T22:19:22.416Z,100.00
2023-01-09T22:21:53.803Z,100.00
2023-01-09T22:24:23.729Z,100.00
2023-01-09T22:26:53.747Z,100.00
2023-01-09T22:29:23.754Z,100.00
2023-01-09T22:31:54.113Z,100.00
2023-01-09T22:34:24.244Z,100.00
2023-01-09T22:36:55.706Z,100.00
2023-01-09T22:39:25.744Z,100.00
2023-01-09T22:41:56.067Z,100.00
2023-01-09T22:44:26.090Z,100.00
2023-01-09T22:46:56.903Z,100.00
2023-01-09T22:49:30.240Z,100.00
2023-01-09T22:52:04.801Z,100.00
2023-01-09T22:54:34.604Z,100.00
2023-01-09T22:57:04.539Z,100.00
2023-01-09T22:59:34.404Z,100.00
2023-01-09T23:02:04.440Z,100.00
2023-01-09T23:04:34.282Z,100.00
2023-01-09T23:07:05.617Z,100.00
2023-01-09T23:09:35.569Z,100.00
2023-01-09T23:12:06.430Z,100.00
2023-01-09T23:14:38.861Z,100.00
2023-01-09T23:17:11.204Z,100.00
2023-01-09T23:19:41.261Z,100.00
2023-01-09T23:22:12.740Z,100.00
2023-01-09T23:24:42.645Z,100.00
2023-01-09T23:27:12.404Z,100.00
2023-01-09T23:29:42.244Z,100.00
2023-01-09T23:32:14.379Z,100.00
2023-01-09T23:34:44.598Z,100.00
2023-01-09T23:37:15.845Z,100.00
2023-01-09T23:39:45.778Z,100.00
2023-01-09T23:42:32.638Z,100.00
2023-01-09T23:45:02.554Z,100.00
2023-01-09T23:47:32.574Z,100.00
2023-01-09T23:50:03.150Z,100.00
2023-01-09T23:52:34.460Z,100.00
2023-01-09T23:55:04.272Z,100.00
2023-01-09T23:57:34.138Z,100.00
